sensor_id;sensor_type;location;lat;lon;timestamp;P1;durP1;ratioP1;P2;durP2;ratioP2
14817;SDS011;7500;57.698;11.986;2024-03-08T00:02:26;11.33;;;4.40;;
14817;SDS011;7500;57.698;11.986;2024-03-08T00:04:54;13.93;;;4.27;;
14817;SDS011;7500;57.698;11.986;2024-03-08T00:07:22;8.03;;;4.37;;
14817;SDS011;7500;57.698;11.986;2024-03-08T00:09:48;11.67;;;4.53;;
14817;SDS011;7500;57.698;11.986;2024-03-08T00:12:15;7.07;;;4.37;;
14817;SDS011;7500;57.698;11.986;2024-03-08T00:14:42;12.50;;;4.50;;
14817;SDS011;7500;57.698;11.986;2024-03-08T00:17:10;9.40;;;4.40;;
14817;SDS011;7500;57.698;11.986;2024-03-08T00:19:36;10.47;;;4.10;;
14817;SDS011;7500;57.698;11.986;2024-03-08T00:22:04;12.43;;;4.30;;
14817;SDS011;7500;57.698;11.986;2024-03-08T00:24:32;9.63;;;3.80;;
14817;SDS011;7500;57.698;11.986;2024-03-08T00:26:59;9.57;;;4.20;;
14817;SDS011;7500;57.698;11.986;2024-03-08T00:29:25;9.63;;;4.63;;
14817;SDS011;7500;57.698;11.986;2024-03-08T00:31:52;12.30;;;4.23;;
14817;SDS011;7500;57.698;11.986;2024-03-08T00:34:19;8.03;;;4.30;;
14817;SDS011;7500;57.698;11.986;2024-03-08T00:36:46;9.90;;;3.80;;
14817;SDS011;7500;57.698;11.986;2024-03-08T00:39:12;12.43;;;4.60;;
14817;SDS011;7500;57.698;11.986;2024-03-08T00:41:40;10.80;;;5.17;;
14817;SDS011;7500;57.698;11.986;2024-03-08T00:44:09;15.10;;;4.60;;
14817;SDS011;7500;57.698;11.986;2024-03-08T00:46:36;7.57;;;4.37;;
14817;SDS011;7500;57.698;11.986;2024-03-08T00:49:03;7.90;;;3.90;;
14817;SDS011;7500;57.698;11.986;2024-03-08T00:51:30;7.50;;;3.73;;
14817;SDS011;7500;57.698;11.986;2024-03-08T00:53:56;7.37;;;3.70;;
14817;SDS011;7500;57.698;11.986;2024-03-08T00:56:23;7.23;;;4.13;;
14817;SDS011;7500;57.698;11.986;2024-03-08T00:58:59;6.53;;;4.23;;
14817;SDS011;7500;57.698;11.986;2024-03-08T01:01:26;8.57;;;4.33;;
14817;SDS011;7500;57.698;11.986;2024-03-08T01:03:52;8.33;;;4.30;;
14817;SDS011;7500;57.698;11.986;2024-03-08T01:06:19;8.10;;;3.97;;
14817;SDS011;7500;57.698;11.986;2024-03-08T01:08:46;12.27;;;4.40;;
14817;SDS011;7500;57.698;11.986;2024-03-08T01:11:12;7.63;;;4.20;;
14817;SDS011;7500;57.698;11.986;2024-03-08T01:13:39;8.10;;;4.20;;
14817;SDS011;7500;57.698;11.986;2024-03-08T01:16:07;9.43;;;4.33;;
14817;SDS011;7500;57.698;11.986;2024-03-08T01:18:35;9.07;;;4.10;;
14817;SDS011;7500;57.698;11.986;2024-03-08T01:21:02;5.83;;;3.63;;
14817;SDS011;7500;57.698;11.986;2024-03-08T01:23:29;6.37;;;3.80;;
14817;SDS011;7500;57.698;11.986;2024-03-08T01:25:55;9.00;;;4.50;;
14817;SDS011;7500;57.698;11.986;2024-03-08T01:28:23;6.03;;;4.00;;
14817;SDS011;7500;57.698;11.986;2024-03-08T01:30:50;16.03;;;4.20;;
14817;SDS011;7500;57.698;11.986;2024-03-08T01:33:22;7.50;;;4.00;;
14817;SDS011;7500;57.698;11.986;2024-03-08T01:35:48;6.03;;;3.97;;
14817;SDS011;7500;57.698;11.986;2024-03-08T01:38:15;8.67;;;4.37;;
14817;SDS011;7500;57.698;11.986;2024-03-08T01:40:42;8.63;;;4.37;;
14817;SDS011;7500;57.698;11.986;2024-03-08T01:43:16;9.73;;;4.13;;
14817;SDS011;7500;57.698;11.986;2024-03-08T01:45:43;10.10;;;4.63;;
14817;SDS011;7500;57.698;11.986;2024-03-08T01:48:09;9.73;;;4.33;;
14817;SDS011;7500;57.698;11.986;2024-03-08T01:50:38;7.23;;;4.07;;
14817;SDS011;7500;57.698;11.986;2024-03-08T01:53:05;8.50;;;3.80;;
14817;SDS011;7500;57.698;11.986;2024-03-08T01:55:32;6.03;;;3.50;;
14817;SDS011;7500;57.698;11.986;2024-03-08T01:58:01;6.43;;;3.90;;
14817;SDS011;7500;57.698;11.986;2024-03-08T02:00:28;8.40;;;3.90;;
14817;SDS011;7500;57.698;11.986;2024-03-08T02:02:55;9.43;;;4.13;;
14817;SDS011;7500;57.698;11.986;2024-03-08T02:05:21;7.73;;;3.97;;
14817;SDS011;7500;57.698;11.986;2024-03-08T02:07:50;6.33;;;4.00;;
14817;SDS011;7500;57.698;11.986;2024-03-08T02:10:17;6.70;;;4.20;;
14817;SDS011;7500;57.698;11.986;2024-03-08T02:12:43;9.57;;;4.17;;
14817;SDS011;7500;57.698;11.986;2024-03-08T02:15:10;9.40;;;4.37;;
14817;SDS011;7500;57.698;11.986;2024-03-08T02:17:37;8.67;;;4.10;;
14817;SDS011;7500;57.698;11.986;2024-03-08T02:20:04;10.27;;;4.13;;
14817;SDS011;7500;57.698;11.986;2024-03-08T02:22:32;7.63;;;4.30;;
14817;SDS011;7500;57.698;11.986;2024-03-08T02:24:58;6.87;;;4.10;;
14817;SDS011;7500;57.698;11.986;2024-03-08T02:27:27;7.97;;;4.30;;
14817;SDS011;7500;57.698;11.986;2024-03-08T02:29:55;8.00;;;4.30;;
14817;SDS011;7500;57.698;11.986;2024-03-08T02:32:22;8.77;;;4.90;;
14817;SDS011;7500;57.698;11.986;2024-03-08T02:34:48;6.97;;;4.43;;
14817;SDS011;7500;57.698;11.986;2024-03-08T02:37:15;8.97;;;4.73;;
14817;SDS011;7500;57.698;11.986;2024-03-08T02:39:43;10.27;;;5.10;;
14817;SDS011;7500;57.698;11.986;2024-03-08T02:42:10;16.93;;;4.73;;
14817;SDS011;7500;57.698;11.986;2024-03-08T02:44:39;8.40;;;4.87;;
14817;SDS011;7500;57.698;11.986;2024-03-08T02:47:09;9.10;;;4.03;;
14817;SDS011;7500;57.698;11.986;2024-03-08T02:49:35;7.50;;;4.13;;
14817;SDS011;7500;57.698;11.986;2024-03-08T02:52:03;9.83;;;4.70;;
14817;SDS011;7500;57.698;11.986;2024-03-08T02:54:30;10.67;;;4.30;;
14817;SDS011;7500;57.698;11.986;2024-03-08T02:56:57;9.17;;;4.53;;
14817;SDS011;7500;57.698;11.986;2024-03-08T02:59:24;7.80;;;4.40;;
14817;SDS011;7500;57.698;11.986;2024-03-08T03:01:51;9.10;;;4.20;;
14817;SDS011;7500;57.698;11.986;2024-03-08T03:04:17;14.53;;;5.13;;
14817;SDS011;7500;57.698;11.986;2024-03-08T03:06:44;5.77;;;4.03;;
14817;SDS011;7500;57.698;11.986;2024-03-08T03:09:11;7.83;;;4.37;;
14817;SDS011;7500;57.698;11.986;2024-03-08T03:11:37;9.17;;;4.30;;
14817;SDS011;7500;57.698;11.986;2024-03-08T03:14:06;9.53;;;4.23;;
14817;SDS011;7500;57.698;11.986;2024-03-08T03:16:34;9.83;;;3.87;;
14817;SDS011;7500;57.698;11.986;2024-03-08T03:19:00;7.40;;;4.70;;
14817;SDS011;7500;57.698;11.986;2024-03-08T03:21:30;10.27;;;4.40;;
14817;SDS011;7500;57.698;11.986;2024-03-08T03:23:57;7.77;;;4.60;;
14817;SDS011;7500;57.698;11.986;2024-03-08T03:26:24;11.90;;;4.30;;
14817;SDS011;7500;57.698;11.986;2024-03-08T03:28:51;6.77;;;4.30;;
14817;SDS011;7500;57.698;11.986;2024-03-08T03:31:20;6.00;;;4.00;;
14817;SDS011;7500;57.698;11.986;2024-03-08T03:33:49;9.03;;;4.50;;
14817;SDS011;7500;57.698;11.986;2024-03-08T03:36:16;7.33;;;4.50;;
14817;SDS011;7500;57.698;11.986;2024-03-08T03:38:43;6.00;;;4.30;;
14817;SDS011;7500;57.698;11.986;2024-03-08T03:41:10;9.57;;;4.50;;
14817;SDS011;7500;57.698;11.986;2024-03-08T03:43:36;8.60;;;4.57;;
14817;SDS011;7500;57.698;11.986;2024-03-08T03:46:05;7.07;;;4.57;;
14817;SDS011;7500;57.698;11.986;2024-03-08T03:48:33;10.07;;;4.80;;
14817;SDS011;7500;57.698;11.986;2024-03-08T03:50:59;7.67;;;4.17;;
14817;SDS011;7500;57.698;11.986;2024-03-08T03:53:26;27.47;;;6.17;;
14817;SDS011;7500;57.698;11.986;2024-03-08T03:55:53;6.60;;;4.80;;
14817;SDS011;7500;57.698;11.986;2024-03-08T03:58:19;7.37;;;5.07;;
14817;SDS011;7500;57.698;11.986;2024-03-08T04:00:47;9.80;;;4.83;;
14817;SDS011;7500;57.698;11.986;2024-03-08T04:03:14;6.50;;;4.57;;
14817;SDS011;7500;57.698;11.986;2024-03-08T04:05:43;7.00;;;4.57;;
14817;SDS011;7500;57.698;11.986;2024-03-08T04:08:10;8.17;;;4.93;;
14817;SDS011;7500;57.698;11.986;2024-03-08T04:10:36;6.50;;;4.63;;
14817;SDS011;7500;57.698;11.986;2024-03-08T04:13:03;9.67;;;5.03;;
14817;SDS011;7500;57.698;11.986;2024-03-08T04:15:30;8.10;;;4.70;;
14817;SDS011;7500;57.698;11.986;2024-03-08T04:17:56;8.70;;;5.60;;
14817;SDS011;7500;57.698;11.986;2024-03-08T04:20:25;9.90;;;5.23;;
14817;SDS011;7500;57.698;11.986;2024-03-08T04:22:53;8.17;;;4.83;;
14817;SDS011;7500;57.698;11.986;2024-03-08T04:25:20;10.03;;;5.03;;
14817;SDS011;7500;57.698;11.986;2024-03-08T04:27:46;14.43;;;5.17;;
14817;SDS011;7500;57.698;11.986;2024-03-08T04:30:14;12.20;;;4.53;;
14817;SDS011;7500;57.698;11.986;2024-03-08T04:32:41;9.93;;;4.63;;
14817;SDS011;7500;57.698;11.986;2024-03-08T04:35:08;13.10;;;5.30;;
14817;SDS011;7500;57.698;11.986;2024-03-08T04:37:34;8.73;;;5.00;;
14817;SDS011;7500;57.698;11.986;2024-03-08T04:40:03;11.07;;;4.67;;
14817;SDS011;7500;57.698;11.986;2024-03-08T04:42:30;6.10;;;4.67;;
14817;SDS011;7500;57.698;11.986;2024-03-08T04:44:58;8.60;;;4.60;;
14817;SDS011;7500;57.698;11.986;2024-03-08T04:47:24;11.03;;;4.70;;
14817;SDS011;7500;57.698;11.986;2024-03-08T04:49:51;12.07;;;4.93;;
14817;SDS011;7500;57.698;11.986;2024-03-08T04:52:18;9.53;;;5.40;;
14817;SDS011;7500;57.698;11.986;2024-03-08T04:54:44;12.93;;;5.30;;
14817;SDS011;7500;57.698;11.986;2024-03-08T04:57:12;11.50;;;5.47;;
14817;SDS011;7500;57.698;11.986;2024-03-08T04:59:39;12.00;;;5.10;;
14817;SDS011;7500;57.698;11.986;2024-03-08T05:02:06;14.47;;;5.30;;
14817;SDS011;7500;57.698;11.986;2024-03-08T05:04:33;9.97;;;4.40;;
14817;SDS011;7500;57.698;11.986;2024-03-08T05:07:00;14.73;;;4.97;;
14817;SDS011;7500;57.698;11.986;2024-03-08T05:09:27;9.03;;;5.00;;
14817;SDS011;7500;57.698;11.986;2024-03-08T05:11:54;7.87;;;5.00;;
14817;SDS011;7500;57.698;11.986;2024-03-08T05:14:23;12.40;;;4.87;;
14817;SDS011;7500;57.698;11.986;2024-03-08T05:16:50;12.57;;;5.57;;
14817;SDS011;7500;57.698;11.986;2024-03-08T05:19:17;8.10;;;4.70;;
14817;SDS011;7500;57.698;11.986;2024-03-08T05:21:43;11.23;;;5.47;;
14817;SDS011;7500;57.698;11.986;2024-03-08T05:24:10;9.33;;;5.20;;
14817;SDS011;7500;57.698;11.986;2024-03-08T05:26:37;13.43;;;5.53;;
14817;SDS011;7500;57.698;11.986;2024-03-08T05:29:03;17.13;;;6.00;;
14817;SDS011;7500;57.698;11.986;2024-03-08T05:31:31;14.70;;;6.23;;
14817;SDS011;7500;57.698;11.986;2024-03-08T05:34:02;16.87;;;5.70;;
14817;SDS011;7500;57.698;11.986;2024-03-08T05:36:28;20.13;;;5.60;;
14817;SDS011;7500;57.698;11.986;2024-03-08T05:38:55;17.77;;;5.67;;
14817;SDS011;7500;57.698;11.986;2024-03-08T05:41:21;15.20;;;5.40;;
14817;SDS011;7500;57.698;11.986;2024-03-08T05:43:48;15.53;;;5.70;;
14817;SDS011;7500;57.698;11.986;2024-03-08T05:46:15;9.50;;;5.83;;
14817;SDS011;7500;57.698;11.986;2024-03-08T05:48:44;12.53;;;5.60;;
14817;SDS011;7500;57.698;11.986;2024-03-08T05:51:11;9.80;;;5.67;;
14817;SDS011;7500;57.698;11.986;2024-03-08T05:53:38;15.03;;;5.93;;
14817;SDS011;7500;57.698;11.986;2024-03-08T05:56:05;9.63;;;5.07;;
14817;SDS011;7500;57.698;11.986;2024-03-08T05:58:31;17.97;;;6.83;;
14817;SDS011;7500;57.698;11.986;2024-03-08T06:00:58;16.10;;;6.17;;
14817;SDS011;7500;57.698;11.986;2024-03-08T06:03:24;13.43;;;5.67;;
14817;SDS011;7500;57.698;11.986;2024-03-08T06:05:52;14.13;;;5.13;;
14817;SDS011;7500;57.698;11.986;2024-03-08T06:08:19;14.33;;;5.80;;
14817;SDS011;7500;57.698;11.986;2024-03-08T06:10:46;24.13;;;6.17;;
14817;SDS011;7500;57.698;11.986;2024-03-08T06:13:17;18.20;;;5.73;;
14817;SDS011;7500;57.698;11.986;2024-03-08T06:15:44;19.60;;;5.93;;
14817;SDS011;7500;57.698;11.986;2024-03-08T06:18:10;19.57;;;6.10;;
14817;SDS011;7500;57.698;11.986;2024-03-08T06:20:37;27.70;;;6.10;;
14817;SDS011;7500;57.698;11.986;2024-03-08T06:23:05;15.53;;;5.73;;
14817;SDS011;7500;57.698;11.986;2024-03-08T06:25:31;12.50;;;6.17;;
14817;SDS011;7500;57.698;11.986;2024-03-08T06:28:00;16.10;;;5.97;;
14817;SDS011;7500;57.698;11.986;2024-03-08T06:30:26;13.93;;;4.80;;
14817;SDS011;7500;57.698;11.986;2024-03-08T06:32:55;15.37;;;5.30;;
14817;SDS011;7500;57.698;11.986;2024-03-08T06:35:22;12.33;;;5.47;;
14817;SDS011;7500;57.698;11.986;2024-03-08T06:37:48;22.17;;;5.50;;
14817;SDS011;7500;57.698;11.986;2024-03-08T06:40:16;15.17;;;6.50;;
14817;SDS011;7500;57.698;11.986;2024-03-08T06:42:43;12.37;;;5.10;;
14817;SDS011;7500;57.698;11.986;2024-03-08T06:45:10;17.40;;;5.20;;
14817;SDS011;7500;57.698;11.986;2024-03-08T06:47:37;16.83;;;5.20;;
14817;SDS011;7500;57.698;11.986;2024-03-08T06:50:07;18.37;;;5.40;;
14817;SDS011;7500;57.698;11.986;2024-03-08T06:52:33;24.33;;;5.80;;
14817;SDS011;7500;57.698;11.986;2024-03-08T06:55:00;21.10;;;5.90;;
14817;SDS011;7500;57.698;11.986;2024-03-08T06:57:29;17.33;;;6.27;;
14817;SDS011;7500;57.698;11.986;2024-03-08T06:59:55;20.80;;;6.20;;
14817;SDS011;7500;57.698;11.986;2024-03-08T07:02:22;17.13;;;5.87;;
14817;SDS011;7500;57.698;11.986;2024-03-08T07:04:50;26.80;;;7.03;;
14817;SDS011;7500;57.698;11.986;2024-03-08T07:07:18;19.53;;;5.73;;
14817;SDS011;7500;57.698;11.986;2024-03-08T07:09:45;25.63;;;6.77;;
14817;SDS011;7500;57.698;11.986;2024-03-08T07:12:12;33.80;;;6.97;;
14817;SDS011;7500;57.698;11.986;2024-03-08T07:14:41;27.70;;;7.00;;
14817;SDS011;7500;57.698;11.986;2024-03-08T07:17:10;37.80;;;7.87;;
14817;SDS011;7500;57.698;11.986;2024-03-08T07:19:37;24.77;;;6.47;;
14817;SDS011;7500;57.698;11.986;2024-03-08T07:22:04;22.90;;;6.67;;
14817;SDS011;7500;57.698;11.986;2024-03-08T07:24:33;20.87;;;6.43;;
14817;SDS011;7500;57.698;11.986;2024-03-08T07:27:15;18.90;;;6.20;;
14817;SDS011;7500;57.698;11.986;2024-03-08T07:29:43;17.93;;;6.50;;
14817;SDS011;7500;57.698;11.986;2024-03-08T07:32:09;16.07;;;5.40;;
14817;SDS011;7500;57.698;11.986;2024-03-08T07:34:46;14.80;;;7.33;;
14817;SDS011;7500;57.698;11.986;2024-03-08T07:37:13;15.07;;;5.80;;
14817;SDS011;7500;57.698;11.986;2024-03-08T07:39:39;18.90;;;5.93;;
14817;SDS011;7500;57.698;11.986;2024-03-08T07:42:06;19.23;;;7.33;;
14817;SDS011;7500;57.698;11.986;2024-03-08T07:44:33;10.90;;;5.43;;
14817;SDS011;7500;57.698;11.986;2024-03-08T07:47:01;11.50;;;5.63;;
14817;SDS011;7500;57.698;11.986;2024-03-08T07:49:28;14.43;;;6.20;;
14817;SDS011;7500;57.698;11.986;2024-03-08T07:51:55;15.20;;;5.83;;
14817;SDS011;7500;57.698;11.986;2024-03-08T07:54:22;13.50;;;5.83;;
14817;SDS011;7500;57.698;11.986;2024-03-08T07:56:48;12.17;;;6.00;;
14817;SDS011;7500;57.698;11.986;2024-03-08T07:59:16;23.53;;;5.67;;
14817;SDS011;7500;57.698;11.986;2024-03-08T08:01:42;8.90;;;5.13;;
14817;SDS011;7500;57.698;11.986;2024-03-08T08:04:10;12.87;;;6.23;;
14817;SDS011;7500;57.698;11.986;2024-03-08T08:06:38;10.17;;;4.77;;
14817;SDS011;7500;57.698;11.986;2024-03-08T08:09:06;14.37;;;5.13;;
14817;SDS011;7500;57.698;11.986;2024-03-08T08:11:35;11.77;;;5.30;;
14817;SDS011;7500;57.698;11.986;2024-03-08T08:14:01;9.70;;;4.63;;
14817;SDS011;7500;57.698;11.986;2024-03-08T08:16:28;6.63;;;4.33;;
14817;SDS011;7500;57.698;11.986;2024-03-08T08:18:54;13.33;;;4.77;;
14817;SDS011;7500;57.698;11.986;2024-03-08T08:21:22;8.87;;;4.03;;
14817;SDS011;7500;57.698;11.986;2024-03-08T08:23:50;6.10;;;4.07;;
14817;SDS011;7500;57.698;11.986;2024-03-08T08:26:16;7.00;;;3.83;;
14817;SDS011;7500;57.698;11.986;2024-03-08T08:28:43;7.60;;;4.13;;
14817;SDS011;7500;57.698;11.986;2024-03-08T08:31:11;8.87;;;4.07;;
14817;SDS011;7500;57.698;11.986;2024-03-08T08:33:38;10.80;;;3.97;;
14817;SDS011;7500;57.698;11.986;2024-03-08T08:36:05;7.77;;;4.60;;
14817;SDS011;7500;57.698;11.986;2024-03-08T08:38:33;10.87;;;4.20;;
14817;SDS011;7500;57.698;11.986;2024-03-08T08:41:00;8.50;;;3.80;;
14817;SDS011;7500;57.698;11.986;2024-03-08T08:43:27;5.60;;;3.43;;
14817;SDS011;7500;57.698;11.986;2024-03-08T08:45:54;8.47;;;3.53;;
14817;SDS011;7500;57.698;11.986;2024-03-08T08:48:20;6.73;;;3.50;;
14817;SDS011;7500;57.698;11.986;2024-03-08T08:50:47;9.70;;;3.70;;
14817;SDS011;7500;57.698;11.986;2024-03-08T08:53:15;6.27;;;3.20;;
14817;SDS011;7500;57.698;11.986;2024-03-08T08:55:45;5.70;;;3.77;;
14817;SDS011;7500;57.698;11.986;2024-03-08T08:58:11;5.33;;;3.40;;
14817;SDS011;7500;57.698;11.986;2024-03-08T09:00:38;4.67;;;3.10;;
14817;SDS011;7500;57.698;11.986;2024-03-08T09:03:05;5.53;;;3.30;;
14817;SDS011;7500;57.698;11.986;2024-03-08T09:05:32;5.57;;;3.20;;
14817;SDS011;7500;57.698;11.986;2024-03-08T09:08:00;7.77;;;3.30;;
14817;SDS011;7500;57.698;11.986;2024-03-08T09:10:28;5.43;;;3.13;;
14817;SDS011;7500;57.698;11.986;2024-03-08T09:12:56;5.40;;;2.90;;
14817;SDS011;7500;57.698;11.986;2024-03-08T09:15:22;10.50;;;3.40;;
14817;SDS011;7500;57.698;11.986;2024-03-08T09:17:53;10.67;;;4.00;;
14817;SDS011;7500;57.698;11.986;2024-03-08T09:20:20;4.27;;;3.27;;
14817;SDS011;7500;57.698;11.986;2024-03-08T09:22:46;6.40;;;3.00;;
14817;SDS011;7500;57.698;11.986;2024-03-08T09:25:13;3.27;;;2.53;;
14817;SDS011;7500;57.698;11.986;2024-03-08T09:27:40;11.37;;;6.53;;
14817;SDS011;7500;57.698;11.986;2024-03-08T09:30:08;6.83;;;3.60;;
14817;SDS011;7500;57.698;11.986;2024-03-08T09:32:38;10.03;;;3.60;;
14817;SDS011;7500;57.698;11.986;2024-03-08T09:35:05;4.10;;;2.90;;
14817;SDS011;7500;57.698;11.986;2024-03-08T09:37:32;6.80;;;3.10;;
14817;SDS011;7500;57.698;11.986;2024-03-08T09:40:00;3.80;;;2.80;;
14817;SDS011;7500;57.698;11.986;2024-03-08T09:42:29;6.13;;;2.57;;
14817;SDS011;7500;57.698;11.986;2024-03-08T09:44:57;7.13;;;2.87;;
14817;SDS011;7500;57.698;11.986;2024-03-08T09:47:25;6.50;;;2.70;;
14817;SDS011;7500;57.698;11.986;2024-03-08T09:49:54;3.97;;;2.43;;
14817;SDS011;7500;57.698;11.986;2024-03-08T09:52:21;6.20;;;2.70;;
14817;SDS011;7500;57.698;11.986;2024-03-08T09:54:47;3.53;;;2.33;;
14817;SDS011;7500;57.698;11.986;2024-03-08T09:57:14;4.73;;;2.40;;
14817;SDS011;7500;57.698;11.986;2024-03-08T09:59:41;8.80;;;2.80;;
14817;SDS011;7500;57.698;11.986;2024-03-08T10:02:14;6.93;;;2.80;;
14817;SDS011;7500;57.698;11.986;2024-03-08T10:04:42;12.97;;;3.30;;
14817;SDS011;7500;57.698;11.986;2024-03-08T10:07:11;11.83;;;3.30;;
14817;SDS011;7500;57.698;11.986;2024-03-08T10:09:38;6.20;;;3.53;;
14817;SDS011;7500;57.698;11.986;2024-03-08T10:12:05;5.80;;;3.10;;
14817;SDS011;7500;57.698;11.986;2024-03-08T10:14:31;8.87;;;2.70;;
14817;SDS011;7500;57.698;11.986;2024-03-08T10:16:58;3.87;;;2.50;;
14817;SDS011;7500;57.698;11.986;2024-03-08T10:19:26;7.10;;;2.83;;
14817;SDS011;7500;57.698;11.986;2024-03-08T10:21:54;11.40;;;2.50;;
14817;SDS011;7500;57.698;11.986;2024-03-08T10:24:23;3.67;;;2.47;;
14817;SDS011;7500;57.698;11.986;2024-03-08T10:26:51;5.57;;;2.60;;
14817;SDS011;7500;57.698;11.986;2024-03-08T10:29:18;5.90;;;2.57;;
14817;SDS011;7500;57.698;11.986;2024-03-08T10:31:45;5.70;;;2.73;;
14817;SDS011;7500;57.698;11.986;2024-03-08T10:34:11;3.00;;;2.33;;
14817;SDS011;7500;57.698;11.986;2024-03-08T10:36:38;4.97;;;2.53;;
14817;SDS011;7500;57.698;11.986;2024-03-08T10:39:11;5.00;;;2.70;;
14817;SDS011;7500;57.698;11.986;2024-03-08T10:41:41;5.87;;;2.50;;
14817;SDS011;7500;57.698;11.986;2024-03-08T10:44:13;3.10;;;2.40;;
14817;SDS011;7500;57.698;11.986;2024-03-08T10:46:48;3.77;;;2.00;;
14817;SDS011;7500;57.698;11.986;2024-03-08T10:49:21;6.73;;;2.43;;
14817;SDS011;7500;57.698;11.986;2024-03-08T10:51:51;6.37;;;2.20;;
14817;SDS011;7500;57.698;11.986;2024-03-08T10:54:20;5.00;;;2.40;;
14817;SDS011;7500;57.698;11.986;2024-03-08T10:56:46;3.97;;;2.30;;
14817;SDS011;7500;57.698;11.986;2024-03-08T10:59:15;4.80;;;2.83;;
14817;SDS011;7500;57.698;11.986;2024-03-08T11:01:43;2.63;;;2.33;;
14817;SDS011;7500;57.698;11.986;2024-03-08T11:04:10;6.87;;;2.53;;
14817;SDS011;7500;57.698;11.986;2024-03-08T11:06:41;8.20;;;3.00;;
14817;SDS011;7500;57.698;11.986;2024-03-08T11:09:11;6.83;;;2.37;;
14817;SDS011;7500;57.698;11.986;2024-03-08T11:12:09;2.87;;;2.17;;
14817;SDS011;7500;57.698;11.986;2024-03-08T11:14:44;8.00;;;2.17;;
14817;SDS011;7500;57.698;11.986;2024-03-08T11:17:14;3.13;;;1.90;;
14817;SDS011;7500;57.698;11.986;2024-03-08T11:19:45;9.63;;;2.43;;
14817;SDS011;7500;57.698;11.986;2024-03-08T11:22:20;4.23;;;1.83;;
14817;SDS011;7500;57.698;11.986;2024-03-08T11:24:47;3.77;;;2.30;;
14817;SDS011;7500;57.698;11.986;2024-03-08T11:27:15;2.13;;;1.80;;
14817;SDS011;7500;57.698;11.986;2024-03-08T11:29:41;3.57;;;1.93;;
14817;SDS011;7500;57.698;11.986;2024-03-08T11:32:08;4.53;;;1.90;;
14817;SDS011;7500;57.698;11.986;2024-03-08T11:34:35;5.30;;;2.20;;
14817;SDS011;7500;57.698;11.986;2024-03-08T11:37:03;4.63;;;1.83;;
14817;SDS011;7500;57.698;11.986;2024-03-08T11:39:30;4.30;;;2.30;;
14817;SDS011;7500;57.698;11.986;2024-03-08T11:41:57;4.20;;;1.70;;
14817;SDS011;7500;57.698;11.986;2024-03-08T11:44:27;6.37;;;2.13;;
14817;SDS011;7500;57.698;11.986;2024-03-08T11:46:54;7.53;;;2.10;;
14817;SDS011;7500;57.698;11.986;2024-03-08T11:49:21;6.10;;;2.00;;
14817;SDS011;7500;57.698;11.986;2024-03-08T11:51:50;3.13;;;2.00;;
14817;SDS011;7500;57.698;11.986;2024-03-08T11:54:17;3.83;;;1.80;;
14817;SDS011;7500;57.698;11.986;2024-03-08T11:56:44;4.37;;;2.00;;
14817;SDS011;7500;57.698;11.986;2024-03-08T11:59:12;7.37;;;2.53;;
14817;SDS011;7500;57.698;11.986;2024-03-08T12:01:41;3.50;;;1.83;;
14817;SDS011;7500;57.698;11.986;2024-03-08T12:04:11;5.93;;;2.00;;
14817;SDS011;7500;57.698;11.986;2024-03-08T12:06:38;2.33;;;1.60;;
14817;SDS011;7500;57.698;11.986;2024-03-08T12:09:07;7.57;;;2.20;;
14817;SDS011;7500;57.698;11.986;2024-03-08T12:11:35;5.30;;;2.20;;
14817;SDS011;7500;57.698;11.986;2024-03-08T12:14:02;2.20;;;1.80;;
14817;SDS011;7500;57.698;11.986;2024-03-08T12:16:28;3.13;;;1.77;;
14817;SDS011;7500;57.698;11.986;2024-03-08T12:18:57;3.13;;;1.90;;
14817;SDS011;7500;57.698;11.986;2024-03-08T12:21:25;3.40;;;1.80;;
14817;SDS011;7500;57.698;11.986;2024-03-08T12:24:04;4.40;;;1.67;;
14817;SDS011;7500;57.698;11.986;2024-03-08T12:26:34;2.10;;;1.70;;
14817;SDS011;7500;57.698;11.986;2024-03-08T12:29:20;2.70;;;1.70;;
14817;SDS011;7500;57.698;11.986;2024-03-08T12:31:47;2.43;;;1.80;;
14817;SDS011;7500;57.698;11.986;2024-03-08T12:34:16;4.67;;;2.03;;
14817;SDS011;7500;57.698;11.986;2024-03-08T12:36:46;2.97;;;1.40;;
14817;SDS011;7500;57.698;11.986;2024-03-08T12:39:17;1.97;;;1.73;;
14817;SDS011;7500;57.698;11.986;2024-03-08T12:41:47;3.80;;;1.60;;
14817;SDS011;7500;57.698;11.986;2024-03-08T12:44:14;6.53;;;1.93;;
14817;SDS011;7500;57.698;11.986;2024-03-08T12:46:40;3.43;;;1.63;;
14817;SDS011;7500;57.698;11.986;2024-03-08T12:49:10;6.70;;;1.87;;
14817;SDS011;7500;57.698;11.986;2024-03-08T12:51:39;2.90;;;1.77;;
14817;SDS011;7500;57.698;11.986;2024-03-08T12:54:06;3.40;;;1.30;;
14817;SDS011;7500;57.698;11.986;2024-03-08T12:56:34;3.90;;;1.80;;
14817;SDS011;7500;57.698;11.986;2024-03-08T12:59:02;5.93;;;1.80;;
14817;SDS011;7500;57.698;11.986;2024-03-08T13:01:30;5.17;;;1.60;;
14817;SDS011;7500;57.698;11.986;2024-03-08T13:03:57;2.73;;;1.47;;
14817;SDS011;7500;57.698;11.986;2024-03-08T13:06:24;1.60;;;1.47;;
14817;SDS011;7500;57.698;11.986;2024-03-08T13:08:52;6.63;;;1.73;;
14817;SDS011;7500;57.698;11.986;2024-03-08T13:11:20;3.77;;;1.50;;
14817;SDS011;7500;57.698;11.986;2024-03-08T13:13:47;1.90;;;1.50;;
14817;SDS011;7500;57.698;11.986;2024-03-08T13:16:13;3.47;;;1.50;;
14817;SDS011;7500;57.698;11.986;2024-03-08T13:18:42;4.47;;;1.87;;
14817;SDS011;7500;57.698;11.986;2024-03-08T13:21:09;8.97;;;2.07;;
14817;SDS011;7500;57.698;11.986;2024-03-08T13:23:36;5.87;;;2.00;;
14817;SDS011;7500;57.698;11.986;2024-03-08T13:26:06;5.47;;;1.50;;
14817;SDS011;7500;57.698;11.986;2024-03-08T13:28:33;2.20;;;1.73;;
14817;SDS011;7500;57.698;11.986;2024-03-08T13:31:02;2.77;;;1.63;;
14817;SDS011;7500;57.698;11.986;2024-03-08T13:33:31;1.63;;;1.47;;
14817;SDS011;7500;57.698;11.986;2024-03-08T13:36:00;5.50;;;1.50;;
14817;SDS011;7500;57.698;11.986;2024-03-08T13:38:28;7.07;;;1.53;;
14817;SDS011;7500;57.698;11.986;2024-03-08T13:40:57;3.27;;;1.97;;
14817;SDS011;7500;57.698;11.986;2024-03-08T13:43:25;1.53;;;1.37;;
14817;SDS011;7500;57.698;11.986;2024-03-08T13:45:53;3.63;;;1.57;;
14817;SDS011;7500;57.698;11.986;2024-03-08T13:48:20;4.90;;;1.60;;
14817;SDS011;7500;57.698;11.986;2024-03-08T13:50:47;2.87;;;1.53;;
14817;SDS011;7500;57.698;11.986;2024-03-08T13:53:14;4.10;;;1.67;;
14817;SDS011;7500;57.698;11.986;2024-03-08T13:55:41;6.37;;;1.73;;
14817;SDS011;7500;57.698;11.986;2024-03-08T13:58:07;4.60;;;1.73;;
14817;SDS011;7500;57.698;11.986;2024-03-08T14:00:36;2.87;;;1.53;;
14817;SDS011;7500;57.698;11.986;2024-03-08T14:03:03;1.80;;;1.70;;
14817;SDS011;7500;57.698;11.986;2024-03-08T14:05:31;5.07;;;1.83;;
14817;SDS011;7500;57.698;11.986;2024-03-08T14:07:59;2.03;;;1.30;;
14817;SDS011;7500;57.698;11.986;2024-03-08T14:10:28;4.40;;;1.50;;
14817;SDS011;7500;57.698;11.986;2024-03-08T14:12:56;3.77;;;1.53;;
14817;SDS011;7500;57.698;11.986;2024-03-08T14:15:23;3.03;;;1.60;;
14817;SDS011;7500;57.698;11.986;2024-03-08T14:17:54;3.17;;;1.47;;
14817;SDS011;7500;57.698;11.986;2024-03-08T14:20:21;12.17;;;1.80;;
14817;SDS011;7500;57.698;11.986;2024-03-08T14:22:50;4.93;;;1.60;;
14817;SDS011;7500;57.698;11.986;2024-03-08T14:25:18;5.73;;;1.97;;
14817;SDS011;7500;57.698;11.986;2024-03-08T14:27:45;4.03;;;1.63;;
14817;SDS011;7500;57.698;11.986;2024-03-08T14:30:11;4.47;;;1.50;;
14817;SDS011;7500;57.698;11.986;2024-03-08T14:32:38;3.17;;;1.77;;
14817;SDS011;7500;57.698;11.986;2024-03-08T14:35:06;3.00;;;1.80;;
14817;SDS011;7500;57.698;11.986;2024-03-08T14:37:33;3.37;;;1.50;;
14817;SDS011;7500;57.698;11.986;2024-03-08T14:39:59;1.30;;;1.20;;
14817;SDS011;7500;57.698;11.986;2024-03-08T14:42:26;2.53;;;1.33;;
14817;SDS011;7500;57.698;11.986;2024-03-08T14:44:53;2.93;;;1.37;;
14817;SDS011;7500;57.698;11.986;2024-03-08T14:47:19;3.03;;;1.47;;